Time;durP1;ratioP1;P1;durP2;ratioP2;P2;SDS_P1;SDS_P2;PMS_P1;PMS_P2;Temp;Humidity;BMP_temperature;BMP_pressure;BME280_temperature;BME280_humidity;BME280_pressure;Samples;Min_cycle;Max_cycle;Signal;HPM_P1;HPM_P2
2024/01/10 00:00:12;;;;;;;0.80;0.80;;;;;;;-4.87;64.16;97543.53;29373;321;63009;-56
2024/01/10 00:00:43;;;;;;;0.80;0.80;;;;;;;-4.87;64.35;97551.47;29373;285;63005;-55
2024/01/10 00:01:15;;;;;;;0.80;0.80;;;;;;;-4.88;63.52;97541.88;29371;205;64013;-56
2024/01/10 00:01:46;;;;;;;0.82;0.82;;;;;;;-4.88;63.81;97547.19;29373;242;63005;-55
2024/01/10 00:02:20;;;;;;;0.90;0.90;;;;;;;-4.86;63.76;97545.19;29373;216;63009;-55
2024/01/10 00:02:52;;;;;;;0.80;0.80;;;;;;;-4.84;63.87;97537.84;29373;204;63004;-56
2024/01/10 00:03:23;;;;;;;0.80;0.80;;;;;;;-4.82;63.47;97535.84;29373;279;63009;-56
2024/01/10 00:03:54;;;;;;;0.70;0.70;;;;;;;-4.82;63.12;97535.03;29373;208;63004;-55
2024/01/10 00:04:26;;;;;;;0.80;0.80;;;;;;;-4.81;63.09;97537.50;29373;202;63008;-56
2024/01/10 00:04:57;;;;;;;0.80;0.80;;;;;;;-4.80;63.13;97538.31;29373;250;63004;-56
2024/01/10 00:05:28;;;;;;;0.80;0.80;;;;;;;-4.80;63.25;97531.19;29373;238;63009;-55
2024/01/10 00:06:01;;;;;;;0.70;0.70;;;;;;;-4.80;63.06;97533.03;29373;208;63005;-55
2024/01/10 00:06:33;;;;;;;0.80;0.80;;;;;;;-4.80;62.85;97523.25;29371;207;64014;-56
2024/01/10 00:07:05;;;;;;;0.80;0.80;;;;;;;-4.82;62.02;97529.72;29373;222;63005;-54
2024/01/10 00:07:36;;;;;;;1.70;1.70;;;;;;;-4.86;62.11;97523.19;29373;250;63009;-56
2024/01/10 00:08:07;;;;;;;0.80;0.80;;;;;;;-4.88;61.89;97525.19;29372;220;64005;-55
2024/01/10 00:08:40;;;;;;;0.80;0.80;;;;;;;-4.90;61.98;97528.00;29371;277;64013;-55
2024/01/10 00:09:11;;;;;;;0.80;0.80;;;;;;;-4.92;62.58;97524.72;29373;364;63005;-56
2024/01/10 00:09:42;;;;;;;0.70;0.70;;;;;;;-4.92;62.96;97529.19;29373;213;63009;-55
2024/01/10 00:10:14;;;;;;;0.80;0.80;;;;;;;-4.93;63.29;97528.38;29373;238;63012;-56
2024/01/10 00:10:45;;;;;;;0.80;0.80;;;;;;;-4.93;62.36;97532.84;29371;197;64013;-55
2024/01/10 00:11:16;;;;;;;0.80;0.80;;;;;;;-4.96;62.06;97526.06;29373;222;63004;-56
2024/01/10 00:11:48;;;;;;;8.23;2.40;;;;;;;-4.96;62.18;97530.53;29373;346;63009;-55
2024/01/10 00:12:20;;;;;;;0.80;0.80;;;;;;;-4.97;62.04;97523.59;29371;217;64008;-57
2024/01/10 00:12:51;;;;;;;0.80;0.80;;;;;;;-4.97;62.34;97529.72;29373;268;63009;-56
2024/01/10 00:13:22;;;;;;;0.80;0.80;;;;;;;-4.97;62.60;97532.37;29373;239;63005;-55
2024/01/10 00:13:59;;;;;;;0.80;0.80;;;;;;;-4.98;64.09;97535.19;29373;266;63009;-55
2024/01/10 00:14:30;;;;;;;0.80;0.80;;;;;;;-4.99;64.96;97541.47;29373;352;63012;-55
2024/01/10 00:15:04;;;;;;;0.70;0.70;;;;;;;-5.00;65.15;97548.59;29372;202;63009;-55
2024/01/10 00:15:35;;;;;;;0.80;0.80;;;;;;;-5.00;64.54;97540.66;29373;259;63015;-56
2024/01/10 00:16:07;;;;;;;0.80;0.80;;;;;;;-4.99;65.54;97549.44;29373;208;63009;-56
2024/01/10 00:16:41;;;;;;;0.80;0.80;;;;;;;-5.00;64.56;97543.31;29373;307;63005;-56
2024/01/10 00:17:14;;;;;;;0.80;0.80;;;;;;;-5.00;64.21;97542.47;29371;273;64013;-55
2024/01/10 00:17:45;;;;;;;0.80;0.80;;;;;;;-5.02;63.85;97547.13;29373;225;63004;-55
2024/01/10 00:18:19;;;;;;;0.80;0.80;;;;;;;-5.03;64.25;97538.38;29373;220;63009;-55
2024/01/10 00:18:51;;;;;;;0.95;0.95;;;;;;;-5.03;64.04;97543.66;29373;268;63004;-55
2024/01/10 00:19:22;;;;;;;0.80;0.80;;;;;;;-5.07;64.66;97531.78;29373;206;63009;-56
2024/01/10 00:19:53;;;;;;;0.85;0.85;;;;;;;-5.02;65.39;97540.03;29373;196;63004;-56
2024/01/10 00:20:25;;;;;;;0.80;0.80;;;;;;;-5.01;65.49;97541.66;29373;257;63009;-55
2024/01/10 00:20:57;;;;;;;0.80;0.80;;;;;;;-5.01;65.93;97544.31;29373;225;63005;-56
2024/01/10 00:21:29;;;;;;;0.80;0.80;;;;;;;-5.00;66.64;97551.25;29373;220;63018;-56
2024/01/10 00:22:01;;;;;;;0.80;0.80;;;;;;;-5.00;66.23;97551.25;29373;215;63005;-55
2024/01/10 00:22:33;;;;;;;0.80;0.80;;;;;;;-4.98;67.44;97551.91;29371;258;64013;-56
2024/01/10 00:23:06;;;;;;;0.80;0.80;;;;;;;-4.98;67.31;97551.91;29373;243;63005;-56
2024/01/10 00:23:37;;;;;;;0.80;0.80;;;;;;;-4.98;67.07;97561.66;29373;213;63009;-55
2024/01/10 00:24:08;;;;;;;0.80;0.80;;;;;;;-5.01;66.76;97554.06;29371;212;64009;-56
2024/01/10 00:24:40;;;;;;;0.80;0.80;;;;;;;-5.02;66.75;97553.25;29373;234;63009;-55
2024/01/10 00:25:12;;;;;;;0.80;0.80;;;;;;;-5.00;67.30;97559.19;29373;196;63004;-55
2024/01/10 00:25:43;;;;;;;0.80;0.80;;;;;;;-5.01;67.49;97554.91;29373;238;63009;-55
2024/01/10 00:26:16;;;;;;;0.80;0.80;;;;;;;-5.01;67.67;97557.53;29373;255;63004;-56
2024/01/10 00:26:47;;;;;;;0.80;0.80;;;;;;;-5.03;67.43;97553.44;29373;216;63009;-56
2024/01/10 00:27:18;;;;;;;0.80;0.80;;;;;;;-5.03;66.99;97551.59;29373;253;63004;-55
2024/01/10 00:27:49;;;;;;;2.03;2.00;;;;;;;-5.01;66.58;97541.66;29373;235;63009;-54
2024/01/10 00:28:21;;;;;;;0.80;0.80;;;;;;;-4.99;66.22;97544.97;29371;235;64009;-55
2024/01/10 00:28:52;;;;;;;0.80;0.80;;;;;;;-4.98;65.80;97541.31;29373;323;63009;-55
2024/01/10 00:29:24;;;;;;;2.53;2.45;;;;;;;-4.98;64.61;97536.00;29373;207;63005;-55
2024/01/10 00:29:57;;;;;;;0.80;0.80;;;;;;;-4.98;64.36;97527.25;29371;279;64013;-56
2024/01/10 00:30:29;;;;;;;0.70;0.70;;;;;;;-4.99;65.46;97542.31;29373;204;63005;-56
2024/01/10 00:31:00;;;;;;;0.80;0.80;;;;;;;-5.00;66.40;97543.31;29373;340;63009;-56
2024/01/10 00:31:31;;;;;;;0.75;0.75;;;;;;;-5.00;67.68;97548.59;29373;213;63007;-56
2024/01/10 00:32:04;;;;;;;0.80;0.80;;;;;;;-5.01;69.04;97557.53;29373;289;63009;-55
2024/01/10 00:32:35;;;;;;;0.95;0.95;;;;;;;-5.05;68.81;97556.25;29373;206;63004;-56
2024/01/10 00:33:06;;;;;;;0.80;0.80;;;;;;;-5.07;69.51;97559.06;29373;238;63009;-56
2024/01/10 00:33:38;;;;;;;0.80;0.80;;;;;;;-5.08;68.87;97556.59;29373;202;63004;-56
2024/01/10 00:34:09;;;;;;;0.80;0.80;;;;;;;-5.09;70.54;97565.53;29373;204;63009;-55
2024/01/10 00:34:41;;;;;;;0.80;0.80;;;;;;;-5.12;70.48;97560.59;29371;342;64008;-55
2024/01/10 00:35:12;;;;;;;0.90;0.90;;;;;;;-5.13;71.23;97569.53;29373;284;63016;-55
2024/01/10 00:35:44;;;;;;;0.80;0.80;;;;;;;-5.14;72.21;97571.38;29373;279;63005;-55
2024/01/10 00:36:15;;;;;;;0.80;0.80;;;;;;;-5.13;72.56;97574.84;29374;306;63009;-55
2024/01/10 00:36:46;;;;;;;1.50;1.42;;;;;;;-5.16;72.38;97569.91;29373;313;63005;-56
2024/01/10 00:37:17;;;;;;;0.80;0.80;;;;;;;-5.19;71.91;97568.41;29373;355;63009;-56
2024/01/10 00:37:48;;;;;;;0.80;0.80;;;;;;;-5.19;71.29;97567.59;29373;203;63005;-55
2024/01/10 00:38:20;;;;;;;0.80;0.80;;;;;;;-5.21;71.33;97562.50;29372;250;63009;-56
2024/01/10 00:38:51;;;;;;;0.80;0.80;;;;;;;-5.19;71.02;97567.59;29373;289;63005;-55
2024/01/10 00:39:22;;;;;;;0.80;0.80;;;;;;;-5.20;70.92;97563.34;29373;205;63009;-56
2024/01/10 00:39:53;;;;;;;0.80;0.80;;;;;;;-5.20;71.19;97564.16;29371;249;64009;-55
2024/01/10 00:40:24;;;;;;;0.80;0.80;;;;;;;-5.20;71.56;97563.34;29373;310;63009;-56
2024/01/10 00:40:56;;;;;;;0.80;0.80;;;;;;;-5.20;71.68;97568.63;29373;264;63010;-57
2024/01/10 00:41:27;;;;;;;1.55;1.55;;;;;;;-5.20;71.81;97565.97;29373;319;63009;-54
2024/01/10 00:41:59;;;;;;;1.40;1.40;;;;;;;-5.20;70.96;97560.69;29373;208;63004;-55
2024/01/10 00:42:30;;;;;;;0.80;0.80;;;;;;;-5.19;70.75;97559.66;29373;197;63008;-55
2024/01/10 00:43:01;;;;;;;0.70;0.70;;;;;;;-5.20;70.29;97552.75;29373;211;63005;-56
2024/01/10 00:43:33;;;;;;;1.42;1.42;;;;;;;-5.18;70.23;97561.31;29373;198;63009;-55
2024/01/10 00:44:04;;;;;;;0.80;0.80;;;;;;;-5.19;69.90;97555.19;29373;322;63005;-55
2024/01/10 00:44:36;;;;;;;0.80;0.80;;;;;;;-5.20;69.60;97553.56;29373;205;63009;-56
2024/01/10 00:45:08;;;;;;;0.80;0.80;;;;;;;-5.20;69.53;97544.81;29371;198;64009;-55
2024/01/10 00:45:40;;;;;;;0.80;0.80;;;;;;;-5.20;69.42;97550.09;29373;205;63020;-55
2024/01/10 00:46:11;;;;;;;0.80;0.80;;;;;;;-5.19;69.33;97549.06;29373;215;63005;-55
2024/01/10 00:46:42;;;;;;;0.80;0.80;;;;;;;-5.17;69.28;97547.06;29373;202;63009;-56
2024/01/10 00:47:14;;;;;;;0.80;0.80;;;;;;;-5.16;68.95;97544.25;29371;231;64009;-55
2024/01/10 00:47:45;;;;;;;0.80;0.80;;;;;;;-5.16;68.85;97538.16;29373;324;63009;-55
2024/01/10 00:48:17;;;;;;;0.80;0.80;;;;;;;-5.14;68.86;97544.09;29373;330;63004;-55
2024/01/10 00:48:48;;;;;;;3.25;3.15;;;;;;;-5.14;68.77;97541.44;29373;228;63022;-55
2024/01/10 00:49:20;;;;;;;0.80;0.80;;;;;;;-5.16;66.59;97530.22;29373;206;63004;-56
2024/01/10 00:49:52;;;;;;;0.77;0.77;;;;;;;-5.16;66.95;97532.84;29373;242;63008;-55
2024/01/10 00:50:23;;;;;;;0.70;0.70;;;;;;;-5.16;67.39;97533.66;29373;283;63004;-55
2024/01/10 00:50:54;;;;;;;0.70;0.70;;;;;;;-5.15;67.69;97539.78;29373;231;63009;-55
2024/01/10 00:51:26;;;;;;;0.80;0.80;;;;;;;-5.16;68.03;97544.25;29371;248;64009;-55
2024/01/10 00:51:57;;;;;;;0.80;0.80;;;;;;;-5.16;68.35;97544.25;29373;379;63009;-55
2024/01/10 00:52:28;;;;;;;0.70;0.70;;;;;;;-5.16;68.69;97548.72;29373;291;63005;-55
2024/01/10 00:52:59;;;;;;;0.75;0.75;;;;;;;-5.16;68.79;97548.72;29373;214;63009;-55
2024/01/10 00:53:31;;;;;;;0.80;0.80;;;;;;;-5.16;68.71;97548.72;29373;219;63005;-56
2024/01/10 00:54:02;;;;;;;0.70;0.70;;;;;;;-5.17;68.63;97547.06;29373;364;63009;-56
2024/01/10 00:54:33;;;;;;;0.80;0.80;;;;;;;-5.17;68.29;97539.16;29373;206;63005;-55
2024/01/10 00:55:05;;;;;;;0.95;0.95;;;;;;;-5.17;68.11;97547.91;29373;225;63009;-56
2024/01/10 00:55:37;;;;;;;0.80;0.80;;;;;;;-5.18;68.54;97546.25;29373;204;63004;-55
2024/01/10 00:56:08;;;;;;;0.70;0.70;;;;;;;-5.18;68.36;97545.44;29373;222;63009;-56
2024/01/10 00:56:41;;;;;;;0.70;0.70;;;;;;;-5.20;68.60;97547.47;29371;321;64009;-55
2024/01/10 00:57:12;;;;;;;0.73;0.73;;;;;;;-5.20;69.04;97547.47;29373;308;63008;-56
2024/01/10 00:57:43;;;;;;;0.70;0.70;;;;;;;-5.19;69.85;97554.37;29373;231;63004;-56
2024/01/10 00:58:15;;;;;;;0.80;0.80;;;;;;;-5.21;70.56;97549.28;29373;274;63009;-56
2024/01/10 00:58:46;;;;;;;0.80;0.80;;;;;;;-5.22;69.60;97549.47;29373;197;63005;-55
2024/01/10 00:59:17;;;;;;;1.20;1.20;;;;;;;-5.23;69.02;97539.87;29373;221;63009;-55
2024/01/10 00:59:49;;;;;;;0.80;0.80;;;;;;;-5.24;69.29;97543.53;29373;200;63005;-55
2024/01/10 01:00:22;;;;;;;0.80;0.80;;;;;;;-5.24;69.36;97548.81;29373;202;63009;-55
2024/01/10 01:00:53;;;;;;;0.80;0.80;;;;;;;-5.23;70.23;97553.09;29373;313;63015;-55
2024/01/10 01:01:24;;;;;;;0.77;0.77;;;;;;;-5.24;70.05;97552.28;29371;220;64013;-56
2024/01/10 01:01:59;;;;;;;0.70;0.70;;;;;;;-5.24;70.68;97552.28;29371;233;64009;-56
2024/01/10 01:02:30;;;;;;;0.80;0.80;;;;;;;-5.25;70.24;97557.75;29373;319;63009;-55
2024/01/10 01:03:01;;;;;;;0.80;0.80;;;;;;;-5.26;69.93;97553.47;29373;225;63004;-55
2024/01/10 01:03:33;;;;;;;0.75;0.75;;;;;;;-5.28;70.53;97544.88;29373;198;63009;-56
2024/01/10 01:04:04;;;;;;;0.80;0.80;;;;;;;-5.28;70.64;97560.75;29373;216;63004;-55
2024/01/10 01:04:36;;;;;;;0.80;0.80;;;;;;;-5.28;70.22;97558.94;29373;302;63008;-55
2024/01/10 01:05:08;;;;;;;0.95;0.95;;;;;;;-5.31;69.53;97546.06;29373;222;63004;-57
2024/01/10 01:05:39;;;;;;;0.80;0.80;;;;;;;-5.29;70.25;97559.09;29373;226;63009;-56
2024/01/10 01:06:10;;;;;;;0.80;0.80;;;;;;;-5.29;70.82;97556.47;29373;260;63005;-55
2024/01/10 01:06:41;;;;;;;0.80;0.80;;;;;;;-5.29;70.73;97548.53;29371;266;64013;-56
2024/01/10 01:07:13;;;;;;;0.80;0.80;;;;;;;-5.32;70.11;97554.16;29373;296;63005;-55
2024/01/10 01:07:44;;;;;;;0.75;0.75;;;;;;;-5.33;70.00;97552.50;29373;203;63009;-55
2024/01/10 01:08:16;;;;;;;0.80;0.80;;;;;;;-5.33;70.24;97555.16;29373;202;63005;-55
2024/01/10 01:08:47;;;;;;;0.70;0.70;;;;;;;-5.34;70.43;97553.50;29373;210;63009;-55
2024/01/10 01:09:19;;;;;;;0.80;0.80;;;;;;;-5.33;69.87;97553.34;29373;217;63004;-56
2024/01/10 01:09:50;;;;;;;0.80;0.80;;;;;;;-5.33;69.69;97549.88;29373;210;63009;-55
2024/01/10 01:10:21;;;;;;;0.70;0.70;;;;;;;-5.32;69.41;97546.22;29373;206;63004;-56
2024/01/10 01:10:53;;;;;;;0.80;0.80;;;;;;;-5.32;69.78;97544.41;29373;323;63009;-55
2024/01/10 01:11:24;;;;;;;0.70;0.70;;;;;;;-5.29;69.59;97553.81;29373;204;63004;-55
2024/01/10 01:11:56;;;;;;;0.80;0.80;;;;;;;-5.29;69.48;97544.06;29371;211;64013;-55
2024/01/10 01:12:27;;;;;;;0.70;0.70;;;;;;;-5.29;69.82;97551.16;29373;198;63005;-55
2024/01/10 01:12:58;;;;;;;0.80;0.80;;;;;;;-5.29;70.57;97553.81;29373;223;63009;-55
2024/01/10 01:13:29;;;;;;;0.80;0.80;;;;;;;-5.29;69.73;97553.81;29373;308;63005;-55
2024/01/10 01:14:01;;;;;;;0.80;0.80;;;;;;;-5.30;69.09;97552.16;29373;242;63009;-56
2024/01/10 01:14:33;;;;;;;0.75;0.75;;;;;;;-5.30;69.11;97549.50;29373;281;63005;-56
2024/01/10 01:15:08;;;;;;;0.80;0.80;;;;;;;-5.30;69.92;97560.91;29373;368;63009;-55
2024/01/10 01:15:40;;;;;;;0.80;0.80;;;;;;;-5.30;68.84;97557.47;29372;213;64005;-56
2024/01/10 01:16:11;;;;;;;0.80;0.80;;;;;;;-5.30;69.36;97554.81;29373;212;63009;-55
2024/01/10 01:16:43;;;;;;;0.80;0.80;;;;;;;-5.30;69.89;97557.47;29373;196;63004;-55
2024/01/10 01:17:14;;;;;;;0.70;0.70;;;;;;;-5.29;70.12;97559.09;29371;332;64013;-55
2024/01/10 01:17:45;;;;;;;0.80;0.80;;;;;;;-5.30;69.29;97552.16;29373;250;63004;-55
2024/01/10 01:18:19;;;;;;;0.80;0.80;;;;;;;-5.30;69.29;97553.00;29373;219;63004;-55
2024/01/10 01:18:51;;;;;;;0.80;0.80;;;;;;;-5.31;69.46;97555.81;29373;214;63004;-56
2024/01/10 01:19:22;;;;;;;0.70;0.70;;;;;;;-5.29;69.82;97559.91;29372;204;63008;-55
2024/01/10 01:19:53;;;;;;;0.80;0.80;;;;;;;-5.28;69.70;97556.28;29373;296;63005;-56
2024/01/10 01:20:24;;;;;;;0.70;0.70;;;;;;;-5.27;68.78;97549.16;29373;223;63013;-56
2024/01/10 01:20:58;;;;;;;0.80;0.80;;;;;;;-5.28;67.70;97544.88;29373;242;63005;-56
2024/01/10 01:21:29;;;;;;;0.70;0.70;;;;;;;-5.29;67.42;97554.63;29373;203;63015;-55
2024/01/10 01:22:01;;;;;;;0.80;0.80;;;;;;;-5.26;67.57;97545.53;29373;218;63005;-56
2024/01/10 01:22:33;;;;;;;0.80;0.80;;;;;;;-5.27;67.43;97549.16;29371;255;64013;-55
2024/01/10 01:23:04;;;;;;;0.80;0.80;;;;;;;-5.27;67.07;97546.53;29373;262;63005;-55
2024/01/10 01:23:35;;;;;;;0.80;0.80;;;;;;;-5.26;67.13;97548.16;29373;199;63009;-55
2024/01/10 01:24:06;;;;;;;0.70;0.70;;;;;;;-5.27;67.10;97551.81;29373;200;63016;-55
2024/01/10 01:24:37;;;;;;;0.98;0.98;;;;;;;-5.25;67.23;97549.81;29373;214;63009;-56
2024/01/10 01:25:11;;;;;;;0.80;0.80;;;;;;;-5.23;67.31;97547.81;29373;207;63004;-56
2024/01/10 01:25:42;;;;;;;0.80;0.80;;;;;;;-5.22;67.83;97557.41;29373;199;63009;-55
2024/01/10 01:26:14;;;;;;;0.80;0.80;;;;;;;-5.22;67.56;97552.09;29372;200;63004;-56
2024/01/10 01:26:45;;;;;;;0.80;0.80;;;;;;;-5.21;68.05;97551.09;29373;206;63018;-56
2024/01/10 01:27:17;;;;;;;0.80;0.80;;;;;;;-5.20;68.48;97555.41;29371;255;64008;-55
2024/01/10 01:27:48;;;;;;;0.80;0.80;;;;;;;-5.20;68.89;97555.41;29371;340;64014;-56
2024/01/10 01:28:19;;;;;;;1.00;1.00;;;;;;;-5.21;68.96;97556.41;29373;221;63005;-55
2024/01/10 01:28:50;;;;;;;0.80;0.80;;;;;;;-5.21;68.66;97554.56;29373;202;63009;-54
2024/01/10 01:29:21;;;;;;;0.80;0.80;;;;;;;-5.21;68.89;97556.41;29371;258;64009;-56
2024/01/10 01:29:53;;;;;;;0.80;0.80;;;;;;;-5.21;69.01;97556.41;29373;232;63024;-56
2024/01/10 01:30:24;;;;;;;0.80;0.80;;;;;;;-5.21;68.66;97561.69;29373;206;63005;-55
2024/01/10 01:30:55;;;;;;;0.80;0.80;;;;;;;-5.21;69.72;97556.41;29373;221;63009;-55
2024/01/10 01:31:26;;;;;;;0.80;0.80;;;;;;;-5.20;69.44;97558.03;29373;232;63005;-55
2024/01/10 01:31:58;;;;;;;0.80;0.80;;;;;;;-5.21;69.64;97557.22;29373;280;63009;-55
2024/01/10 01:32:29;;;;;;;0.70;0.70;;;;;;;-5.20;69.14;97563.34;29373;197;63004;-55
2024/01/10 01:33:00;;;;;;;1.45;1.45;;;;;;;-5.20;69.30;97558.03;29373;336;63009;-56
2024/01/10 01:33:31;;;;;;;0.80;0.80;;;;;;;-5.20;69.24;97558.88;29373;206;63009;-55
2024/01/10 01:34:02;;;;;;;2.92;2.45;;;;;;;-5.20;69.45;97558.88;29372;284;64009;-55
2024/01/10 01:34:33;;;;;;;0.80;0.80;;;;;;;-5.19;69.03;97554.37;29371;202;64008;-56
2024/01/10 01:35:05;;;;;;;0.77;0.77;;;;;;;-5.20;68.85;97560.69;29373;290;63015;-55
2024/01/10 01:35:37;;;;;;;0.80;0.80;;;;;;;-5.22;68.43;97560.88;29373;210;63005;-55
2024/01/10 01:36:08;;;;;;;0.80;0.80;;;;;;;-5.22;68.98;97554.75;29373;218;63009;-55
2024/01/10 01:36:40;;;;;;;0.80;0.80;;;;;;;-5.23;69.74;97563.69;29373;302;63008;-55
2024/01/10 01:37:11;;;;;;;0.80;0.80;;;;;;;-5.23;69.96;97561.03;29373;245;63009;-55
2024/01/10 01:37:42;;;;;;;0.90;0.90;;;;;;;-5.22;70.68;97573.28;29373;202;63005;-55
2024/01/10 01:38:13;;;;;;;0.77;0.77;;;;;;;-5.22;71.05;97565.34;29373;203;63014;-55
2024/01/10 01:38:46;;;;;;;0.80;0.80;;;;;;;-5.22;70.83;97571.44;29373;293;63005;-55
2024/01/10 01:39:18;;;;;;;0.80;0.80;;;;;;;-5.21;71.33;97569.63;29371;304;64013;-55
2024/01/10 01:39:50;;;;;;;0.80;0.80;;;;;;;-5.21;72.07;97569.63;29373;198;63004;-55
2024/01/10 01:40:21;;;;;;;0.80;0.80;;;;;;;-5.21;71.94;97573.09;29373;271;63009;-54
2024/01/10 01:40:53;;;;;;;0.70;0.70;;;;;;;-5.20;71.79;97572.09;29373;331;63010;-55
2024/01/10 01:41:24;;;;;;;0.80;0.80;;;;;;;-5.19;72.13;97572.88;29373;309;63009;-55
2024/01/10 01:41:55;;;;;;;0.95;0.95;;;;;;;-5.18;71.95;97569.25;29373;330;63004;-55
2024/01/10 01:42:26;;;;;;;0.70;0.70;;;;;;;-5.18;71.54;97563.94;29373;213;63009;-55
2024/01/10 01:42:58;;;;;;;0.80;0.80;;;;;;;-5.19;72.13;97570.25;29373;319;63005;-55
2024/01/10 01:43:29;;;;;;;0.90;0.90;;;;;;;-5.20;71.52;97564.16;29371;222;64014;-55
2024/01/10 01:44:01;;;;;;;0.70;0.70;;;;;;;-5.21;71.37;97572.28;29373;204;63005;-55
2024/01/10 01:44:32;;;;;;;0.80;0.80;;;;;;;-5.22;71.17;97560.03;29373;218;63009;-55
2024/01/10 01:45:04;;;;;;;0.80;0.80;;;;;;;-5.21;71.06;97561.69;29373;355;63005;-56
2024/01/10 01:45:36;;;;;;;0.80;0.80;;;;;;;-5.21;71.96;97573.09;29373;221;63009;-55
2024/01/10 01:46:12;;;;;;;0.80;0.80;;;;;;;-5.22;72.72;97571.44;29373;226;63005;-55
2024/01/10 01:46:44;;;;;;;0.80;0.80;;;;;;;-5.20;73.17;97572.09;29373;230;63009;-55
2024/01/10 01:47:16;;;;;;;0.80;0.80;;;;;;;-5.20;73.00;97563.34;29373;206;63008;-55
2024/01/10 01:47:49;;;;;;;0.80;0.80;;;;;;;-5.21;72.01;97561.69;29371;228;64013;-55
2024/01/10 01:48:21;;;;;;;0.80;0.80;;;;;;;-5.21;72.19;97567.81;29373;284;63004;-56
2024/01/10 01:48:53;;;;;;;0.80;0.80;;;;;;;-5.20;72.21;97565.97;29373;218;63009;-55
2024/01/10 01:49:25;;;;;;;0.75;0.75;;;;;;;-5.21;72.55;97561.69;29371;278;64008;-55
2024/01/10 01:49:57;;;;;;;0.80;0.80;;;;;;;-5.20;72.36;97568.63;29373;203;63008;-55
2024/01/10 01:50:28;;;;;;;0.80;0.80;;;;;;;-5.21;71.37;97562.50;29373;371;63005;-56
2024/01/10 01:51:04;;;;;;;0.90;0.90;;;;;;;-5.22;70.77;97560.88;29373;239;63009;-55
2024/01/10 01:51:37;;;;;;;0.70;0.70;;;;;;;-5.22;70.69;97560.03;29373;275;63005;-55
2024/01/10 01:52:10;;;;;;;0.80;0.80;;;;;;;-5.24;70.16;97562.03;29373;291;63009;-55
2024/01/10 01:52:43;;;;;;;0.80;0.80;;;;;;;-5.25;69.78;97555.09;29373;200;63005;-55
2024/01/10 01:53:17;;;;;;;0.80;0.80;;;;;;;-5.28;69.22;97550.16;29371;317;64013;-55
2024/01/10 01:53:49;;;;;;;0.80;0.80;;;;;;;-5.30;68.34;97552.16;29373;197;63004;-55
2024/01/10 01:54:21;;;;;;;3.62;3.53;;;;;;;-5.30;68.52;97546.87;29373;228;63009;-55
2024/01/10 01:54:53;;;;;;;0.80;0.80;;;;;;;-5.30;68.85;97552.16;29373;318;63004;-55
2024/01/10 01:55:24;;;;;;;0.80;0.80;;;;;;;-5.29;70.09;97567.03;29373;215;63009;-55
2024/01/10 01:55:56;;;;;;;0.80;0.80;;;;;;;-5.29;69.42;97549.34;29373;220;63004;-55
2024/01/10 01:56:27;;;;;;;0.80;0.80;;;;;;;-5.28;70.04;97555.47;29373;203;63008;-55
2024/01/10 01:56:59;;;;;;;0.80;0.80;;;;;;;-5.28;70.57;97560.75;29373;222;63004;-55
2024/01/10 01:57:31;;;;;;;2.80;2.70;;;;;;;-5.27;70.87;97557.09;29373;250;63008;-55
2024/01/10 01:58:03;;;;;;;1.65;1.65;;;;;;;-5.27;70.96;97562.41;29373;210;63005;-55
2024/01/10 01:58:36;;;;;;;0.80;0.80;;;;;;;-5.25;71.72;97565.69;29371;330;64013;-55
2024/01/10 01:59:08;;;;;;;0.77;0.77;;;;;;;-5.25;71.98;97565.69;29373;205;63005;-55
2024/01/10 01:59:40;;;;;;;0.70;0.70;;;;;;;-5.25;72.05;97565.69;29373;238;63009;-55
2024/01/10 02:00:14;;;;;;;1.25;1.15;;;;;;;-5.24;72.62;97569.97;29373;310;63005;-55
2024/01/10 02:00:46;;;;;;;0.80;0.80;;;;;;;-5.24;72.31;97570.81;29373;304;63009;-55
2024/01/10 02:01:22;;;;;;;0.80;0.80;;;;;;;-5.24;72.05;97565.50;29373;265;63004;-55
2024/01/10 02:01:56;;;;;;;0.80;0.80;;;;;;;-5.24;72.70;97567.34;29373;202;63009;-55
2024/01/10 02:02:30;;;;;;;0.80;0.80;;;;;;;-5.26;72.29;97564.88;29373;218;63004;-55
2024/01/10 02:03:02;;;;;;;3.25;3.00;;;;;;;-5.26;72.23;97558.75;29371;301;64013;-56
2024/01/10 02:03:34;;;;;;;0.80;0.80;;;;;;;-5.27;72.54;97565.88;29373;238;63004;-55
2024/01/10 02:04:09;;;;;;;0.80;0.80;;;;;;;-5.26;73.71;97569.34;29373;205;63008;-55
2024/01/10 02:04:40;;;;;;;0.80;0.80;;;;;;;-5.27;73.69;97565.88;29373;225;63005;-55
2024/01/10 02:05:13;;;;;;;0.70;0.70;;;;;;;-5.27;73.38;97567.69;29373;255;63009;-55
2024/01/10 02:05:46;;;;;;;0.73;0.73;;;;;;;-5.30;72.38;97562.75;29373;197;63014;-56
2024/01/10 02:06:17;;;;;;;0.90;0.90;;;;;;;-5.32;72.16;97554.16;29373;196;63009;-55
2024/01/10 02:06:49;;;;;;;0.80;0.80;;;;;;;-5.32;72.14;97562.09;29373;255;63005;-55
2024/01/10 02:07:20;;;;;;;0.73;0.73;;;;;;;-5.32;72.56;97556.81;29373;210;63009;-56
2024/01/10 02:07:51;;;;;;;0.80;0.80;;;;;;;-5.30;73.18;97568.03;29373;202;63005;-55
2024/01/10 02:08:23;;;;;;;0.75;0.75;;;;;;;-5.29;72.83;97564.38;29371;317;64013;-58
2024/01/10 02:08:54;;;;;;;0.80;0.80;;;;;;;-5.28;72.14;97560.75;29373;225;63004;-55
2024/01/10 02:09:25;;;;;;;0.80;0.80;;;;;;;-5.30;71.51;97549.50;29373;196;63009;-56
2024/01/10 02:09:57;;;;;;;0.90;0.90;;;;;;;-5.30;72.06;97557.47;29373;278;63004;-55
2024/01/10 02:10:28;;;;;;;1.00;1.00;;;;;;;-5.32;72.28;97560.28;29373;218;63009;-55
2024/01/10 02:11:01;;;;;;;0.80;0.80;;;;;;;-5.32;71.92;97562.09;29373;222;63004;-55
2024/01/10 02:11:33;;;;;;;0.80;0.80;;;;;;;-5.30;71.90;97554.81;29371;222;64013;-55
2024/01/10 02:12:05;;;;;;;0.70;0.70;;;;;;;-5.33;71.13;97549.88;29373;202;63005;-56
2024/01/10 02:12:37;;;;;;;0.70;0.70;;;;;;;-5.31;71.28;97551.34;29372;269;64009;-56
2024/01/10 02:13:10;;;;;;;1.00;1.00;;;;;;;-5.29;71.25;97556.47;29373;358;63015;-55
2024/01/10 02:13:42;;;;;;;0.73;0.73;;;;;;;-5.33;71.19;97552.50;29373;216;63009;-55
2024/01/10 02:14:15;;;;;;;0.80;0.80;;;;;;;-5.33;70.95;97555.16;29373;220;63005;-55
2024/01/10 02:14:46;;;;;;;0.80;0.80;;;;;;;-5.32;71.44;97554.16;29373;241;63009;-55
2024/01/10 02:15:18;;;;;;;0.77;0.77;;;;;;;-5.32;71.26;97549.69;29373;294;63010;-55
2024/01/10 02:15:49;;;;;;;0.80;0.80;;;;;;;-5.31;71.27;97546.06;29373;268;63009;-55
2024/01/10 02:16:22;;;;;;;1.00;1.00;;;;;;;-5.31;70.92;97551.34;29373;202;63004;-55
2024/01/10 02:16:55;;;;;;;0.80;0.80;;;;;;;-5.31;70.76;97555.81;29371;230;64013;-55
2024/01/10 02:17:27;;;;;;;0.80;0.80;;;;;;;-5.32;70.65;97554.16;29373;270;63004;-55
2024/01/10 02:17:58;;;;;;;0.80;0.80;;;;;;;-5.33;70.85;97544.56;29373;310;63009;-56
2024/01/10 02:18:29;;;;;;;0.80;0.80;;;;;;;-5.32;70.70;97543.59;29373;198;63004;-55
2024/01/10 02:19:01;;;;;;;1.92;1.87;;;;;;;-5.33;71.10;97542.75;29373;224;63008;-55
2024/01/10 02:19:34;;;;;;;0.80;0.80;;;;;;;-5.32;71.45;97548.88;29373;234;63001;-56
2024/01/10 02:20:13;;;;;;;0.80;0.80;;;;;;;-5.31;71.54;97550.50;29373;207;63009;-55
2024/01/10 02:20:45;;;;;;;0.80;0.80;;;;;;;-5.32;71.19;97548.88;29373;198;63005;-55
2024/01/10 02:21:23;;;;;;;0.80;0.80;;;;;;;-5.32;71.12;97548.88;29371;295;64013;-54
2024/01/10 02:21:56;;;;;;;2.28;2.17;;;;;;;-5.33;70.49;97542.75;29373;219;63012;-56
2024/01/10 02:22:27;;;;;;;0.77;0.77;;;;;;;-5.30;70.62;97539.75;29373;221;63009;-55
2024/01/10 02:22:58;;;;;;;0.70;0.70;;;;;;;-5.28;70.24;97539.59;29373;202;63005;-55
2024/01/10 02:23:29;;;;;;;0.70;0.70;;;;;;;-5.26;70.13;97537.59;29373;364;63009;-55
2024/01/10 02:24:00;;;;;;;0.80;0.80;;;;;;;-5.25;71.12;97549.81;29373;205;63004;-56
2024/01/10 02:24:32;;;;;;;0.80;0.80;;;;;;;-5.27;71.08;97546.53;29373;205;63009;-56
2024/01/10 02:25:06;;;;;;;0.80;0.80;;;;;;;-5.29;70.49;97545.88;29371;202;64009;-54
2024/01/10 02:25:38;;;;;;;0.80;0.80;;;;;;;-5.29;70.86;97541.41;29373;316;63009;-57
2024/01/10 02:26:10;;;;;;;0.80;0.80;;;;;;;-5.29;70.67;97548.53;29373;196;63004;-56
2024/01/10 02:26:41;;;;;;;0.70;0.70;;;;;;;-5.29;70.82;97543.22;29373;224;63008;-56
2024/01/10 02:27:13;;;;;;;0.80;0.80;;;;;;;-5.30;70.81;97546.87;29373;378;63005;-55
2024/01/10 02:27:44;;;;;;;0.80;0.80;;;;;;;-5.30;70.51;97544.22;29373;265;63009;-55
2024/01/10 02:28:19;;;;;;;0.80;0.80;;;;;;;-5.33;70.19;97547.22;29373;271;63005;-55
2024/01/10 02:28:50;;;;;;;0.80;0.80;;;;;;;-5.32;71.20;97546.22;29373;214;63009;-55
2024/01/10 02:29:23;;;;;;;0.80;0.80;;;;;;;-5.33;70.99;97547.22;29371;237;64009;-55
2024/01/10 02:29:58;;;;;;;0.80;0.80;;;;;;;-5.33;71.62;97541.94;29373;357;63009;-55
2024/01/10 02:30:29;;;;;;;0.80;0.80;;;;;;;-5.32;72.29;97549.69;29371;253;64009;-55
2024/01/10 02:31:02;;;;;;;0.77;0.77;;;;;;;-5.31;73.10;97550.50;29373;263;63009;-55
2024/01/10 02:31:34;;;;;;;0.80;0.80;;;;;;;-5.32;73.42;97554.16;29373;228;63004;-55